Time;durP1;ratioP1;P1;durP2;ratioP2;P2;SDS_P1;SDS_P2;PMS_P1;PMS_P2;Temp;Humidity;BMP_temperature;BMP_pressure;BME280_temperature;BME280_humidity;BME280_pressure;Samples;Min_cycle;Max_cycle;Signal;HPM_P1;HPM_P2
2022/05/08 00:00:14;;;;;;;11.63;10.30;;;;;;;;;;513848;28;1821;-82
2022/05/08 00:00:29;;;;;;;11.45;10.32;;;;;;;;;;513586;28;1489;-82
2022/05/08 00:00:44;;;;;;;11.38;10.18;;;;;;;;;;514459;28;1491;-82
2022/05/08 00:01:00;;;;;;;11.50;10.27;;;;;;;;;;516098;28;1455;-82
2022/05/08 00:01:16;;;;;;;11.73;10.32;;;;;;;;;;518453;28;888;-82
2022/05/08 00:01:35;;;;;;;12.03;10.67;;;;;;;;;;516331;28;1250;-82
2022/05/08 00:01:50;;;;;;;12.20;10.93;;;;;;;;;;517005;28;1672;-82
2022/05/08 00:02:07;;;;;;;11.43;10.32;;;;;;;;;;514396;28;1459;-82
2022/05/08 00:02:23;;;;;;;10.95;9.95;;;;;;;;;;514483;28;1754;-82
2022/05/08 00:02:40;;;;;;;11.20;10.10;;;;;;;;;;514874;28;1780;-82
2022/05/08 00:02:57;;;;;;;11.35;10.18;;;;;;;;;;514757;28;864;-82
2022/05/08 00:03:12;;;;;;;11.30;10.10;;;;;;;;;;516467;28;873;-82
2022/05/08 00:03:28;;;;;;;11.45;10.25;;;;;;;;;;518730;28;900;-82
2022/05/08 00:03:43;;;;;;;11.20;10.10;;;;;;;;;;517050;28;1145;-82
2022/05/08 00:03:58;;;;;;;11.15;10.05;;;;;;;;;;516328;28;847;-82
2022/05/08 00:04:14;;;;;;;12.30;10.50;;;;;;;;;;515036;28;1162;-82
2022/05/08 00:04:29;;;;;;;12.27;10.40;;;;;;;;;;516299;28;991;-82
2022/05/08 00:04:45;;;;;;;11.27;10.18;;;;;;;;;;514966;28;1177;-82
2022/05/08 00:05:01;;;;;;;11.15;10.05;;;;;;;;;;514091;28;852;-82
2022/05/08 00:05:16;;;;;;;11.13;10.03;;;;;;;;;;514071;28;984;-82
2022/05/08 00:05:31;;;;;;;11.63;10.43;;;;;;;;;;514363;28;873;-82
2022/05/08 00:05:47;;;;;;;11.32;10.13;;;;;;;;;;513614;28;1207;-82
2022/05/08 00:06:07;;;;;;;11.07;9.93;;;;;;;;;;515525;28;1602;-82
2022/05/08 00:06:22;;;;;;;11.25;10.15;;;;;;;;;;517746;28;876;-82
2022/05/08 00:06:37;;;;;;;11.40;10.30;;;;;;;;;;515823;28;1171;-82
2022/05/08 00:06:53;;;;;;;11.40;10.30;;;;;;;;;;516098;28;888;-82
2022/05/08 00:07:08;;;;;;;11.07;9.97;;;;;;;;;;514153;28;1371;-82
2022/05/08 00:07:24;;;;;;;10.77;9.67;;;;;;;;;;514215;28;842;-82
2022/05/08 00:07:39;;;;;;;11.02;9.88;;;;;;;;;;515428;28;801;-82
2022/05/08 00:07:54;;;;;;;11.57;10.27;;;;;;;;;;516431;28;1419;-82
2022/05/08 00:08:10;;;;;;;11.50;10.30;;;;;;;;;;516158;28;951;-82
2022/05/08 00:08:25;;;;;;;11.53;10.40;;;;;;;;;;516621;28;1033;-82
2022/05/08 00:08:40;;;;;;;11.20;10.10;;;;;;;;;;518475;28;884;-82
2022/05/08 00:08:56;;;;;;;10.80;9.70;;;;;;;;;;518657;28;1077;-82
2022/05/08 00:09:11;;;;;;;11.27;9.70;;;;;;;;;;518343;28;1337;-82
2022/05/08 00:09:26;;;;;;;11.03;9.77;;;;;;;;;;518306;28;963;-82
2022/05/08 00:09:42;;;;;;;10.88;9.77;;;;;;;;;;518272;28;1050;-82
2022/05/08 00:09:58;;;;;;;11.00;9.88;;;;;;;;;;517825;28;943;-82
2022/05/08 00:10:13;;;;;;;11.23;10.13;;;;;;;;;;517806;28;1470;-82
2022/05/08 00:10:29;;;;;;;11.20;10.13;;;;;;;;;;517263;28;1634;-82
2022/05/08 00:10:45;;;;;;;11.57;10.05;;;;;;;;;;518111;28;853;-82
2022/05/08 00:11:00;;;;;;;11.30;10.13;;;;;;;;;;517824;28;1583;-82
2022/05/08 00:11:15;;;;;;;10.70;9.70;;;;;;;;;;517322;28;1493;-82
2022/05/08 00:11:31;;;;;;;10.48;9.48;;;;;;;;;;517512;28;1404;-82
2022/05/08 00:11:46;;;;;;;10.40;9.50;;;;;;;;;;515220;28;1603;-82
2022/05/08 00:12:02;;;;;;;10.27;9.37;;;;;;;;;;514535;28;972;-82
2022/05/08 00:12:18;;;;;;;10.53;9.53;;;;;;;;;;515247;28;743;-82
2022/05/08 00:12:33;;;;;;;10.70;9.70;;;;;;;;;;516031;28;1406;-82
2022/05/08 00:12:49;;;;;;;10.45;9.50;;;;;;;;;;514755;28;884;-82
2022/05/08 00:13:04;;;;;;;10.50;9.50;;;;;;;;;;515890;28;904;-82
2022/05/08 00:13:20;;;;;;;10.93;9.82;;;;;;;;;;515537;28;1601;-82
2022/05/08 00:13:35;;;;;;;10.97;9.87;;;;;;;;;;514384;28;1320;-82
2022/05/08 00:13:51;;;;;;;11.48;10.32;;;;;;;;;;514044;28;1225;-82
2022/05/08 00:14:06;;;;;;;12.70;10.87;;;;;;;;;;515835;28;1047;-82
2022/05/08 00:14:21;;;;;;;12.13;10.40;;;;;;;;;;516346;28;1514;-82
2022/05/08 00:14:38;;;;;;;11.40;10.20;;;;;;;;;;516404;28;928;-82
2022/05/08 00:14:53;;;;;;;11.85;10.60;;;;;;;;;;514555;28;1098;-82
2022/05/08 00:15:09;;;;;;;12.03;10.83;;;;;;;;;;513931;28;1129;-82
2022/05/08 00:15:24;;;;;;;12.05;10.85;;;;;;;;;;513568;28;1310;-82
2022/05/08 00:15:40;;;;;;;12.05;10.85;;;;;;;;;;515998;28;902;-82
2022/05/08 00:15:56;;;;;;;12.02;10.80;;;;;;;;;;515267;28;814;-82
2022/05/08 00:16:11;;;;;;;13.03;11.03;;;;;;;;;;514629;28;1713;-82
2022/05/08 00:16:26;;;;;;;12.20;10.87;;;;;;;;;;517227;28;888;-82
2022/05/08 00:16:42;;;;;;;11.80;10.63;;;;;;;;;;514723;28;1213;-82
2022/05/08 00:16:57;;;;;;;12.77;11.47;;;;;;;;;;516495;28;943;-82
2022/05/08 00:17:13;;;;;;;13.40;12.00;;;;;;;;;;517529;28;1487;-82
2022/05/08 00:17:34;;;;;;;13.60;12.10;;;;;;;;;;517548;28;876;-82
2022/05/08 00:17:49;;;;;;;13.13;11.73;;;;;;;;;;517385;28;1555;-82
2022/05/08 00:18:05;;;;;;;13.00;11.60;;;;;;;;;;517706;28;1161;-82
2022/05/08 00:18:23;;;;;;;13.40;11.95;;;;;;;;;;516379;28;876;-82
2022/05/08 00:18:38;;;;;;;13.60;11.98;;;;;;;;;;518309;28;1539;-82
2022/05/08 00:18:53;;;;;;;13.30;11.90;;;;;;;;;;518731;28;1750;-82
2022/05/08 00:19:09;;;;;;;13.60;12.15;;;;;;;;;;516110;28;1152;-82
2022/05/08 00:19:24;;;;;;;13.93;12.43;;;;;;;;;;518328;28;1002;-82
2022/05/08 00:19:41;;;;;;;13.68;12.27;;;;;;;;;;517859;28;1573;-82
2022/05/08 00:19:56;;;;;;;13.63;12.02;;;;;;;;;;517599;28;1019;-82
2022/05/08 00:20:13;;;;;;;13.93;12.23;;;;;;;;;;517594;28;1547;-82
2022/05/08 00:20:31;;;;;;;14.25;12.75;;;;;;;;;;515283;28;2014;-82
2022/05/08 00:20:46;;;;;;;14.82;13.25;;;;;;;;;;516009;28;923;-82
2022/05/08 00:21:02;;;;;;;15.63;14.03;;;;;;;;;;514411;28;1192;-82
2022/05/08 00:21:17;;;;;;;15.60;14.00;;;;;;;;;;514577;28;1552;-82
2022/05/08 00:21:33;;;;;;;15.75;14.10;;;;;;;;;;514109;28;1291;-82
2022/05/08 00:21:48;;;;;;;15.50;13.90;;;;;;;;;;513480;28;799;-82
2022/05/08 00:22:04;;;;;;;15.40;13.80;;;;;;;;;;513084;28;798;-82
2022/05/08 00:22:19;;;;;;;15.77;14.18;;;;;;;;;;513553;28;1608;-82
2022/05/08 00:22:34;;;;;;;15.87;14.23;;;;;;;;;;514089;28;1427;-82
2022/05/08 00:22:50;;;;;;;17.33;14.10;;;;;;;;;;512135;28;1160;-82
2022/05/08 00:23:05;;;;;;;16.27;14.00;;;;;;;;;;510237;29;1891;-82
2022/05/08 00:23:21;;;;;;;15.18;13.63;;;;;;;;;;511242;28;1441;-82
2022/05/08 00:23:36;;;;;;;15.43;13.63;;;;;;;;;;513636;28;1381;-82
2022/05/08 00:23:51;;;;;;;15.27;13.67;;;;;;;;;;514231;28;1707;-82
2022/05/08 00:24:07;;;;;;;14.88;13.38;;;;;;;;;;514043;28;912;-82
2022/05/08 00:24:22;;;;;;;15.40;13.80;;;;;;;;;;514406;28;801;-82
2022/05/08 00:24:38;;;;;;;16.45;13.88;;;;;;;;;;515947;28;1418;-82
2022/05/08 00:24:53;;;;;;;15.50;13.67;;;;;;;;;;516218;28;1595;-82
2022/05/08 00:25:09;;;;;;;15.18;13.65;;;;;;;;;;518489;28;1453;-82
2022/05/08 00:25:26;;;;;;;15.30;13.67;;;;;;;;;;519851;28;794;-82
2022/05/08 00:25:41;;;;;;;15.15;13.55;;;;;;;;;;516164;28;1288;-82
2022/05/08 00:25:56;;;;;;;15.57;13.70;;;;;;;;;;515628;28;1202;-82
2022/05/08 00:26:13;;;;;;;15.38;13.70;;;;;;;;;;516237;28;1476;-82
2022/05/08 00:26:28;;;;;;;14.90;12.85;;;;;;;;;;517393;28;955;-82
2022/05/08 00:26:43;;;;;;;14.23;12.23;;;;;;;;;;517092;28;1539;-82
2022/05/08 00:26:59;;;;;;;13.35;12.02;;;;;;;;;;515536;28;821;-82
2022/05/08 00:27:14;;;;;;;13.13;11.83;;;;;;;;;;514404;28;1615;-82
2022/05/08 00:27:30;;;;;;;13.10;11.75;;;;;;;;;;516072;28;1377;-82
2022/05/08 00:27:45;;;;;;;13.80;12.00;;;;;;;;;;517884;28;1510;-82
2022/05/08 00:28:00;;;;;;;14.03;12.50;;;;;;;;;;519728;28;1510;-82
2022/05/08 00:28:16;;;;;;;13.63;12.23;;;;;;;;;;518592;28;1637;-82
2022/05/08 00:28:31;;;;;;;13.07;11.77;;;;;;;;;;517389;28;1425;-82
2022/05/08 00:28:46;;;;;;;13.30;12.00;;;;;;;;;;518214;28;812;-81
2022/05/08 00:29:02;;;;;;;13.50;12.10;;;;;;;;;;517440;28;1172;-82
2022/05/08 00:29:17;;;;;;;13.47;12.07;;;;;;;;;;516667;28;1629;-82
2022/05/08 00:29:33;;;;;;;13.85;12.45;;;;;;;;;;519658;28;1558;-82
2022/05/08 00:29:49;;;;;;;14.07;12.40;;;;;;;;;;514624;28;1178;-82
2022/05/08 00:30:05;;;;;;;13.70;12.17;;;;;;;;;;515791;28;856;-82
2022/05/08 00:30:20;;;;;;;13.50;12.05;;;;;;;;;;515964;28;1314;-82
2022/05/08 00:30:36;;;;;;;13.30;11.95;;;;;;;;;;515586;28;1618;-82
2022/05/08 00:30:51;;;;;;;13.60;12.30;;;;;;;;;;516579;28;828;-82
2022/05/08 00:31:10;;;;;;;14.67;13.17;;;;;;;;;;514031;28;1275;-82
2022/05/08 00:31:26;;;;;;;15.13;13.63;;;;;;;;;;515552;28;954;-82
2022/05/08 00:31:42;;;;;;;15.37;13.87;;;;;;;;;;514385;28;1571;-82
2022/05/08 00:31:57;;;;;;;15.63;14.10;;;;;;;;;;515936;28;1243;-82
2022/05/08 00:32:13;;;;;;;15.93;14.18;;;;;;;;;;516534;28;1486;-82
2022/05/08 00:32:28;;;;;;;15.60;13.87;;;;;;;;;;517417;28;1339;-83
2022/05/08 00:32:43;;;;;;;15.45;13.85;;;;;;;;;;516269;28;1610;-82
2022/05/08 00:32:59;;;;;;;15.13;13.63;;;;;;;;;;516470;28;1230;-82
2022/05/08 00:33:15;;;;;;;15.40;13.90;;;;;;;;;;516158;28;1202;-82
2022/05/08 00:33:31;;;;;;;15.67;14.07;;;;;;;;;;517151;28;781;-82
2022/05/08 00:33:47;;;;;;;16.30;14.25;;;;;;;;;;517358;28;1585;-82
2022/05/08 00:34:03;;;;;;;16.13;14.40;;;;;;;;;;519097;28;1002;-82
2022/05/08 00:34:18;;;;;;;15.15;13.63;;;;;;;;;;518224;28;915;-82
2022/05/08 00:34:33;;;;;;;14.60;13.20;;;;;;;;;;518155;28;869;-82
2022/05/08 00:34:49;;;;;;;14.87;13.37;;;;;;;;;;517790;28;816;-82
2022/05/08 00:35:05;;;;;;;15.03;13.50;;;;;;;;;;516520;28;1542;-82
2022/05/08 00:35:21;;;;;;;16.08;13.43;;;;;;;;;;517322;28;1446;-82
2022/05/08 00:35:36;;;;;;;16.23;13.17;;;;;;;;;;515066;28;1304;-82
2022/05/08 00:35:51;;;;;;;14.77;13.20;;;;;;;;;;515202;28;1559;-82
2022/05/08 00:36:07;;;;;;;14.70;13.25;;;;;;;;;;515749;28;1676;-82
2022/05/08 00:36:22;;;;;;;14.80;13.30;;;;;;;;;;514383;28;880;-82
2022/05/08 00:36:38;;;;;;;14.97;13.43;;;;;;;;;;515760;28;794;-82
2022/05/08 00:36:53;;;;;;;14.50;13.03;;;;;;;;;;515824;28;726;-82
2022/05/08 00:37:10;;;;;;;15.15;13.55;;;;;;;;;;514777;28;1006;-82
2022/05/08 00:37:25;;;;;;;15.70;14.10;;;;;;;;;;517826;28;881;-82
2022/05/08 00:37:41;;;;;;;15.03;13.53;;;;;;;;;;518212;28;1222;-82
2022/05/08 00:37:56;;;;;;;15.10;13.63;;;;;;;;;;518100;28;900;-82
2022/05/08 00:38:12;;;;;;;16.10;14.43;;;;;;;;;;517575;28;1482;-82
2022/05/08 00:38:27;;;;;;;16.00;14.23;;;;;;;;;;517462;28;1422;-82
2022/05/08 00:38:42;;;;;;;16.08;13.73;;;;;;;;;;517798;28;1287;-82
2022/05/08 00:38:58;;;;;;;15.30;13.27;;;;;;;;;;516047;28;770;-82
2022/05/08 00:39:13;;;;;;;14.20;12.80;;;;;;;;;;517697;28;1563;-82
2022/05/08 00:39:29;;;;;;;14.48;12.90;;;;;;;;;;519048;28;801;-82
2022/05/08 00:39:44;;;;;;;14.77;13.17;;;;;;;;;;518487;28;1640;-82
2022/05/08 00:39:59;;;;;;;14.90;13.40;;;;;;;;;;515065;28;1646;-82
2022/05/08 00:40:15;;;;;;;15.15;13.65;;;;;;;;;;517223;28;1293;-82
2022/05/08 00:40:35;;;;;;;15.27;13.77;;;;;;;;;;516260;28;1725;-82
2022/05/08 00:40:50;;;;;;;14.57;13.13;;;;;;;;;;517823;28;935;-82
2022/05/08 00:41:07;;;;;;;14.30;12.90;;;;;;;;;;517540;28;1475;-82
2022/05/08 00:41:22;;;;;;;14.52;12.98;;;;;;;;;;518116;28;1885;-82
2022/05/08 00:41:37;;;;;;;14.23;12.80;;;;;;;;;;515626;28;1500;-82
2022/05/08 00:41:53;;;;;;;14.60;13.05;;;;;;;;;;515025;28;901;-82
2022/05/08 00:42:09;;;;;;;16.07;13.53;;;;;;;;;;515938;28;1526;-82
2022/05/08 00:42:27;;;;;;;15.15;13.13;;;;;;;;;;517035;28;1383;-82
2022/05/08 00:42:43;;;;;;;14.73;13.15;;;;;;;;;;517527;28;1859;-82
2022/05/08 00:43:26;;;;;;;15.27;13.68;;;;;;;;;;518440;28;976;-82
2022/05/08 00:43:41;;;;;;;15.00;13.38;;;;;;;;;;517434;28;1597;-82
2022/05/08 00:43:57;;;;;;;15.50;13.80;;;;;;;;;;515333;28;1230;-82
2022/05/08 00:44:13;;;;;;;14.90;13.38;;;;;;;;;;516128;28;2308;-82
2022/05/08 00:44:28;;;;;;;14.30;12.88;;;;;;;;;;514523;28;2324;-82
2022/05/08 00:44:43;;;;;;;14.07;12.70;;;;;;;;;;515496;28;1610;-82
2022/05/08 00:44:59;;;;;;;14.10;12.80;;;;;;;;;;515878;28;1436;-82
2022/05/08 00:45:14;;;;;;;14.33;12.93;;;;;;;;;;516425;28;814;-82
2022/05/08 00:45:30;;;;;;;14.90;13.40;;;;;;;;;;516237;28;1547;-82
2022/05/08 00:45:45;;;;;;;15.57;14.07;;;;;;;;;;515945;28;1578;-82
2022/05/08 00:46:06;;;;;;;15.80;14.30;;;;;;;;;;515703;28;1429;-82
2022/05/08 00:46:21;;;;;;;16.75;15.07;;;;;;;;;;515913;28;1480;-82
2022/05/08 00:46:37;;;;;;;16.97;15.27;;;;;;;;;;516114;28;825;-82
2022/05/08 00:46:52;;;;;;;16.93;15.23;;;;;;;;;;516361;28;778;-82
2022/05/08 00:47:08;;;;;;;16.80;15.13;;;;;;;;;;515902;28;1539;-82
2022/05/08 00:47:23;;;;;;;16.73;15.03;;;;;;;;;;515781;28;1619;-82
2022/05/08 00:47:38;;;;;;;16.60;14.80;;;;;;;;;;516989;28;1547;-82
2022/05/08 00:47:54;;;;;;;16.70;15.00;;;;;;;;;;516146;28;1422;-82
2022/05/08 00:48:09;;;;;;;17.03;15.30;;;;;;;;;;517316;28;1566;-82
2022/05/08 00:48:25;;;;;;;17.10;14.98;;;;;;;;;;516403;28;987;-82
2022/05/08 00:48:41;;;;;;;17.40;15.30;;;;;;;;;;517397;28;1439;-82
2022/05/08 00:48:57;;;;;;;17.55;15.80;;;;;;;;;;517725;28;1422;-82
2022/05/08 00:49:12;;;;;;;17.73;15.95;;;;;;;;;;517721;28;1496;-82
2022/05/08 00:49:27;;;;;;;17.42;15.63;;;;;;;;;;517702;28;1750;-82
2022/05/08 00:49:43;;;;;;;16.80;15.10;;;;;;;;;;518318;28;817;-82
2022/05/08 00:49:59;;;;;;;16.47;14.87;;;;;;;;;;517203;28;1046;-82
2022/05/08 00:50:14;;;;;;;16.67;14.98;;;;;;;;;;516048;28;1345;-82
2022/05/08 00:50:30;;;;;;;17.27;15.40;;;;;;;;;;517188;28;857;-82
2022/05/08 00:50:45;;;;;;;16.97;15.17;;;;;;;;;;517655;28;1565;-82
2022/05/08 00:51:03;;;;;;;16.52;14.82;;;;;;;;;;517692;28;1240;-82
2022/05/08 00:51:19;;;;;;;17.63;15.40;;;;;;;;;;517280;28;1276;-82
2022/05/08 00:51:36;;;;;;;18.30;15.57;;;;;;;;;;518394;28;940;-82
2022/05/08 00:51:51;;;;;;;19.63;15.93;;;;;;;;;;517673;28;1580;-82
2022/05/08 00:52:07;;;;;;;19.40;15.90;;;;;;;;;;517427;28;1241;-82
2022/05/08 00:52:23;;;;;;;17.80;15.57;;;;;;;;;;519801;28;1370;-82
2022/05/08 00:52:38;;;;;;;17.10;15.30;;;;;;;;;;520261;28;1046;-82
2022/05/08 00:52:53;;;;;;;16.67;14.97;;;;;;;;;;518814;28;1553;-82
2022/05/08 00:53:09;;;;;;;17.10;15.40;;;;;;;;;;518472;28;896;-82
2022/05/08 00:53:28;;;;;;;17.60;15.80;;;;;;;;;;518644;28;1450;-82
2022/05/08 00:53:48;;;;;;;17.67;15.88;;;;;;;;;;516256;28;1358;-82
2022/05/08 00:54:04;;;;;;;18.48;16.48;;;;;;;;;;514645;28;1397;-82
2022/05/08 00:54:19;;;;;;;18.00;16.10;;;;;;;;;;515849;28;865;-82
2022/05/08 00:54:34;;;;;;;17.60;15.80;;;;;;;;;;516330;28;941;-82
2022/05/08 00:54:50;;;;;;;17.17;15.40;;;;;;;;;;515761;28;1662;-82
2022/05/08 00:55:06;;;;;;;17.50;15.50;;;;;;;;;;515494;28;845;-82
2022/05/08 00:55:22;;;;;;;18.52;16.35;;;;;;;;;;514651;28;1929;-82
2022/05/08 00:55:37;;;;;;;18.27;16.23;;;;;;;;;;516365;28;1276;-82
2022/05/08 00:55:54;;;;;;;19.00;16.43;;;;;;;;;;516214;28;1609;-82
2022/05/08 00:56:11;;;;;;;17.88;15.98;;;;;;;;;;516239;28;1408;-82
2022/05/08 00:56:27;;;;;;;17.15;15.35;;;;;;;;;;515856;28;1350;-82
2022/05/08 00:56:43;;;;;;;16.98;15.18;;;;;;;;;;514798;28;770;-82
2022/05/08 00:56:59;;;;;;;16.50;14.80;;;;;;;;;;516023;28;1609;-82
2022/05/08 00:57:15;;;;;;;16.38;14.68;;;;;;;;;;515696;28;1566;-82
2022/05/08 00:57:30;;;;;;;16.13;14.43;;;;;;;;;;514504;28;1259;-82
2022/05/08 00:57:45;;;;;;;15.98;14.38;;;;;;;;;;515146;28;874;-82
2022/05/08 00:58:02;;;;;;;15.77;14.27;;;;;;;;;;514797;28;896;-82
2022/05/08 00:58:17;;;;;;;16.08;14.48;;;;;;;;;;515144;28;1623;-82
2022/05/08 00:58:34;;;;;;;15.60;14.00;;;;;;;;;;516327;28;1488;-82
2022/05/08 00:58:54;;;;;;;15.20;13.60;;;;;;;;;;515410;28;1444;-82
2022/05/08 00:59:10;;;;;;;15.70;14.10;;;;;;;;;;515284;28;1543;-82
2022/05/08 00:59:25;;;;;;;15.77;14.07;;;;;;;;;;516651;28;1537;-82
2022/05/08 00:59:41;;;;;;;15.80;14.10;;;;;;;;;;517885;28;1610;-82
2022/05/08 00:59:58;;;;;;;16.13;14.53;;;;;;;;;;516258;28;1193;-82
2022/05/08 01:00:14;;;;;;;15.70;14.20;;;;;;;;;;514609;28;1103;-82
2022/05/08 01:00:29;;;;;;;14.98;13.48;;;;;;;;;;516958;28;1515;-82
2022/05/08 01:00:45;;;;;;;15.97;14.27;;;;;;;;;;517626;28;1706;-82
2022/05/08 01:01:02;;;;;;;16.40;14.45;;;;;;;;;;518550;28;1007;-82
2022/05/08 01:01:17;;;;;;;15.90;14.07;;;;;;;;;;518537;28;1031;-82
2022/05/08 01:01:33;;;;;;;16.55;13.75;;;;;;;;;;518370;28;1253;-82
2022/05/08 01:01:48;;;;;;;17.00;13.67;;;;;;;;;;519089;28;1538;-82
2022/05/08 01:02:04;;;;;;;15.45;13.57;;;;;;;;;;520315;28;1184;-82
2022/05/08 01:02:19;;;;;;;15.73;14.13;;;;;;;;;;517584;28;1541;-82
2022/05/08 01:02:35;;;;;;;15.55;14.05;;;;;;;;;;518297;28;1402;-83
2022/05/08 01:02:50;;;;;;;14.87;13.37;;;;;;;;;;517513;28;1610;-82
2022/05/08 01:03:05;;;;;;;15.17;13.57;;;;;;;;;;517629;28;1910;-82
2022/05/08 01:03:21;;;;;;;15.77;14.02;;;;;;;;;;517371;28;1456;-82
2022/05/08 01:03:37;;;;;;;16.33;14.63;;;;;;;;;;515336;28;1420;-82
2022/05/08 01:03:53;;;;;;;16.25;14.60;;;;;;;;;;515632;28;1626;-82
2022/05/08 01:04:08;;;;;;;16.40;14.70;;;;;;;;;;518498;28;821;-82
2022/05/08 01:04:23;;;;;;;16.35;14.65;;;;;;;;;;519674;28;1455;-82
2022/05/08 01:04:39;;;;;;;15.70;14.10;;;;;;;;;;520137;28;1260;-82
2022/05/08 01:04:54;;;;;;;16.05;14.43;;;;;;;;;;519611;28;1576;-82
2022/05/08 01:05:11;;;;;;;16.47;14.77;;;;;;;;;;519516;28;1545;-82
2022/05/08 01:05:26;;;;;;;16.17;14.48;;;;;;;;;;519448;28;1612;-82
2022/05/08 01:05:42;;;;;;;16.17;14.35;;;;;;;;;;518896;28;1217;-82
2022/05/08 01:06:04;;;;;;;15.88;14.27;;;;;;;;;;518124;28;839;-82
2022/05/08 01:06:20;;;;;;;16.00;14.50;;;;;;;;;;518085;28;1039;-82
2022/05/08 01:06:35;;;;;;;16.17;14.57;;;;;;;;;;516275;28;988;-82
2022/05/08 01:06:51;;;;;;;16.80;15.15;;;;;;;;;;516613;28;1551;-82
2022/05/08 01:07:06;;;;;;;17.27;15.47;;;;;;;;;;515151;28;1261;-82
2022/05/08 01:07:21;;;;;;;17.13;15.32;;;;;;;;;;515064;28;1193;-82
2022/05/08 01:07:37;;;;;;;17.20;15.40;;;;;;;;;;516432;28;881;-82
2022/05/08 01:07:52;;;;;;;18.00;15.48;;;;;;;;;;516841;28;778;-82
2022/05/08 01:08:09;;;;;;;18.10;15.67;;;;;;;;;;516257;28;817;-82
2022/05/08 01:08:25;;;;;;;17.38;15.55;;;;;;;;;;516469;28;1754;-82
2022/05/08 01:08:44;;;;;;;17.52;15.63;;;;;;;;;;515122;28;1453;-82
2022/05/08 01:08:59;;;;;;;17.70;15.60;;;;;;;;;;513124;28;806;-82
2022/05/08 01:09:14;;;;;;;17.20;15.40;;;;;;;;;;516447;28;992;-82
2022/05/08 01:09:30;;;;;;;16.57;14.83;;;;;;;;;;515558;28;1610;-82
2022/05/08 01:09:46;;;;;;;16.60;14.80;;;;;;;;;;516029;28;799;-82
2022/05/08 01:10:01;;;;;;;16.00;14.40;;;;;;;;;;515297;28;1504;-82
2022/05/08 01:10:16;;;;;;;16.48;14.82;;;;;;;;;;515175;28;1445;-83
2022/05/08 01:10:32;;;;;;;16.60;15.00;;;;;;;;;;516104;28;1482;-82
2022/05/08 01:10:47;;;;;;;15.63;14.03;;;;;;;;;;515471;28;1064;-82
2022/05/08 01:11:06;;;;;;;16.05;14.35;;;;;;;;;;515503;28;1023;-82
2022/05/08 01:11:21;;;;;;;16.73;15.10;;;;;;;;;;518128;28;1043;-82
2022/05/08 01:11:37;;;;;;;16.37;14.77;;;;;;;;;;517998;28;1569;-82
2022/05/08 01:11:53;;;;;;;16.75;15.05;;;;;;;;;;517264;28;1518;-82
2022/05/08 01:12:09;;;;;;;17.03;15.23;;;;;;;;;;515352;28;1229;-82
2022/05/08 01:12:24;;;;;;;17.25;15.43;;;;;;;;;;512729;28;1405;-82
2022/05/08 01:12:44;;;;;;;17.80;15.80;;;;;;;;;;513513;28;1517;-82
2022/05/08 01:13:01;;;;;;;18.38;15.80;;;;;;;;;;516408;28;1478;-82
2022/05/08 01:13:17;;;;;;;18.17;16.27;;;;;;;;;;516691;28;1593;-82
2022/05/08 01:13:33;;;;;;;18.20;16.40;;;;;;;;;;515888;28;1349;-82
2022/05/08 01:13:48;;;;;;;17.85;16.05;;;;;;;;;;515744;28;1795;-82
2022/05/08 01:14:04;;;;;;;18.00;16.20;;;;;;;;;;518075;28;885;-82
2022/05/08 01:14:19;;;;;;;17.77;16.03;;;;;;;;;;517762;28;1478;-82
2022/05/08 01:14:34;;;;;;;17.48;15.68;;;;;;;;;;516326;28;841;-82
2022/05/08 01:15:09;;;;;;;17.67;15.87;;;;;;;;;;518464;28;825;-82
2022/05/08 01:15:25;;;;;;;18.20;16.40;;;;;;;;;;519760;28;1561;-82
2022/05/08 01:15:42;;;;;;;19.00;17.10;;;;;;;;;;520412;28;1390;-82
2022/05/08 01:15:58;;;;;;;19.87;17.37;;;;;;;;;;517716;28;1223;-82
2022/05/08 01:16:15;;;;;;;21.00;17.40;;;;;;;;;;514643;28;1236;-82
2022/05/08 01:16:31;;;;;;;19.17;17.17;;;;;;;;;;516249;28;1343;-82
2022/05/08 01:16:46;;;;;;;19.58;17.48;;;;;;;;;;516409;28;1726;-82
2022/05/08 01:17:02;;;;;;;21.40;17.70;;;;;;;;;;515526;28;1063;-82
2022/05/08 01:17:18;;;;;;;21.17;17.60;;;;;;;;;;516880;28;1558;-82
2022/05/08 01:17:33;;;;;;;19.67;17.55;;;;;;;;;;517511;28;1216;-82
2022/05/08 01:17:49;;;;;;;19.90;17.87;;;;;;;;;;516648;28;1429;-82
2022/05/08 01:18:05;;;;;;;20.17;18.13;;;;;;;;;;517468;28;1547;-82
2022/05/08 01:18:20;;;;;;;19.88;17.88;;;;;;;;;;514954;28;1261;-82
2022/05/08 01:18:36;;;;;;;19.55;17.63;;;;;;;;;;514995;28;1071;-82
2022/05/08 01:18:51;;;;;;;19.60;17.70;;;;;;;;;;514286;28;1066;-82
2022/05/08 01:19:08;;;;;;;18.95;17.15;;;;;;;;;;514376;28;1528;-82
2022/05/08 01:19:24;;;;;;;18.77;16.92;;;;;;;;;;515016;28;1556;-82
2022/05/08 01:19:39;;;;;;;19.57;17.63;;;;;;;;;;516251;28;1047;-82
2022/05/08 01:19:57;;;;;;;19.98;17.85;;;;;;;;;;518448;28;994;-82
2022/05/08 01:20:13;;;;;;;19.67;17.50;;;;;;;;;;515738;28;1318;-82
2022/05/08 01:20:29;;;;;;;18.67;16.77;;;;;;;;;;516255;28;1637;-82
2022/05/08 01:20:45;;;;;;;18.35;16.55;;;;;;;;;;515836;28;1666;-82
2022/05/08 01:21:01;;;;;;;18.40;16.50;;;;;;;;;;516588;28;840;-82
2022/05/08 01:21:18;;;;;;;19.65;16.65;;;;;;;;;;514003;28;1425;-82
2022/05/08 01:21:41;;;;;;;18.83;16.77;;;;;;;;;;514213;28;1100;-82
2022/05/08 01:21:56;;;;;;;18.65;16.75;;;;;;;;;;512003;29;1362;-82
2022/05/08 01:22:12;;;;;;;18.60;16.70;;;;;;;;;;511639;28;1600;-82
2022/05/08 01:22:28;;;;;;;18.77;16.77;;;;;;;;;;514091;28;1263;-82
2022/05/08 01:22:43;;;;;;;18.20;16.30;;;;;;;;;;513510;28;1722;-82
2022/05/08 01:23:01;;;;;;;17.60;15.88;;;;;;;;;;513440;28;1683;-82
2022/05/08 01:23:21;;;;;;;17.75;15.95;;;;;;;;;;513161;28;1555;-82
2022/05/08 01:23:37;;;;;;;18.33;16.50;;;;;;;;;;514047;28;1428;-82
2022/05/08 01:23:53;;;;;;;18.23;16.42;;;;;;;;;;515992;28;1432;-82
2022/05/08 01:24:09;;;;;;;17.65;15.85;;;;;;;;;;516818;28;1590;-82
2022/05/08 01:24:25;;;;;;;17.90;16.05;;;;;;;;;;518129;28;890;-82
2022/05/08 01:24:40;;;;;;;17.50;15.80;;;;;;;;;;517919;28;1613;-82
2022/05/08 01:24:59;;;;;;;17.42;15.60;;;;;;;;;;518134;28;1343;-82
2022/05/08 01:25:14;;;;;;;18.10;16.00;;;;;;;;;;514210;28;912;-82
2022/05/08 01:25:30;;;;;;;18.05;16.25;;;;;;;;;;516346;28;1617;-82
2022/05/08 01:25:54;;;;;;;17.63;15.83;;;;;;;;;;514909;28;1471;-82
2022/05/08 01:26:09;;;;;;;17.30;15.50;;;;;;;;;;515252;28;1095;-82
2022/05/08 01:26:24;;;;;;;17.92;16.13;;;;;;;;;;512741;28;1470;-82
2022/05/08 01:26:40;;;;;;;18.53;16.63;;;;;;;;;;512581;28;996;-82
2022/05/08 01:26:55;;;;;;;18.73;16.73;;;;;;;;;;513098;28;1167;-82
2022/05/08 01:27:10;;;;;;;18.58;16.67;;;;;;;;;;515458;28;1473;-82
2022/05/08 01:27:26;;;;;;;18.03;16.23;;;;;;;;;;514458;28;1644;-82
2022/05/08 01:27:41;;;;;;;17.57;15.87;;;;;;;;;;517460;28;1197;-82
2022/05/08 01:27:56;;;;;;;17.77;16.05;;;;;;;;;;514321;28;877;-82
2022/05/08 01:28:13;;;;;;;17.90;16.10;;;;;;;;;;514541;28;939;-82
2022/05/08 01:28:29;;;;;;;17.67;15.88;;;;;;;;;;519649;28;1589;-82
2022/05/08 01:28:44;;;;;;;17.30;15.63;;;;;;;;;;518445;28;1435;-82
2022/05/08 01:29:01;;;;;;;17.40;15.70;;;;;;;;;;515918;28;1285;-82
2022/05/08 01:29:17;;;;;;;17.58;15.80;;;;;;;;;;515678;28;1094;-82
2022/05/08 01:29:32;;;;;;;18.10;16.30;;;;;;;;;;518473;28;992;-82
2022/05/08 01:29:47;;;;;;;18.43;16.53;;;;;;;;;;515821;28;1510;-82
2022/05/08 01:30:05;;;;;;;18.30;16.40;;;;;;;;;;514272;28;1631;-82
2022/05/08 01:30:22;;;;;;;18.70;16.75;;;;;;;;;;512656;28;925;-82
2022/05/08 01:30:44;;;;;;;19.05;17.05;;;;;;;;;;514569;28;865;-82
2022/05/08 01:31:00;;;;;;;18.67;16.73;;;;;;;;;;515498;28;1585;-82
2022/05/08 01:31:15;;;;;;;18.33;16.43;;;;;;;;;;515318;28;1498;-82
2022/05/08 01:31:31;;;;;;;19.08;16.23;;;;;;;;;;513378;28;1217;-82
2022/05/08 01:31:47;;;;;;;19.42;16.52;;;;;;;;;;515481;28;1408;-82
2022/05/08 01:32:03;;;;;;;18.38;16.48;;;;;;;;;;514611;28;801;-82
2022/05/08 01:32:19;;;;;;;18.02;16.17;;;;;;;;;;514967;28;1140;-82
2022/05/08 01:32:34;;;;;;;17.90;16.10;;;;;;;;;;516376;28;1273;-82
2022/05/08 01:32:50;;;;;;;17.55;15.85;;;;;;;;;;515731;28;1510;-82
2022/05/08 01:33:05;;;;;;;17.33;15.63;;;;;;;;;;515192;28;813;-82
2022/05/08 01:33:22;;;;;;;17.35;15.60;;;;;;;;;;517136;28;1410;-82
2022/05/08 01:33:37;;;;;;;17.90;16.10;;;;;;;;;;516630;28;1404;-82
2022/05/08 01:33:53;;;;;;;18.40;16.42;;;;;;;;;;517097;28;820;-82
2022/05/08 01:34:09;;;;;;;18.75;16.75;;;;;;;;;;517409;28;921;-82
2022/05/08 01:34:24;;;;;;;18.10;16.30;;;;;;;;;;518590;28;801;-82
2022/05/08 01:34:39;;;;;;;17.55;15.75;;;;;;;;;;517348;28;1371;-82
2022/05/08 01:34:55;;;;;;;17.90;16.00;;;;;;;;;;516124;28;1424;-82
2022/05/08 01:35:10;;;;;;;18.03;16.13;;;;;;;;;;517409;28;1504;-82
2022/05/08 01:35:27;;;;;;;17.85;16.05;;;;;;;;;;518660;28;905;-82
2022/05/08 01:35:43;;;;;;;17.55;15.85;;;;;;;;;;519960;28;960;-82
2022/05/08 01:36:01;;;;;;;17.98;16.15;;;;;;;;;;518483;28;1043;-82
2022/05/08 01:36:16;;;;;;;17.95;16.15;;;;;;;;;;519354;28;873;-82
2022/05/08 01:36:31;;;;;;;18.05;16.15;;;;;;;;;;520390;28;871;-82
2022/05/08 01:36:47;;;;;;;18.30;16.27;;;;;;;;;;519961;28;1553;-82